sensor_id;sensor_type;location;lat;lon;timestamp;temperature;humidity
64888;DHT22;51386;53.082;8.816;2023-06-22T00:00:59;23.20;71.50
64888;DHT22;51386;53.082;8.816;2023-06-22T00:03:28;23.20;71.40
64888;DHT22;51386;53.082;8.816;2023-06-22T00:05:56;23.30;71.40
64888;DHT22;51386;53.082;8.816;2023-06-22T00:08:23;23.30;71.10
64888;DHT22;51386;53.082;8.816;2023-06-22T00:10:50;23.30;71.10
64888;DHT22;51386;53.082;8.816;2023-06-22T00:13:17;23.30;70.90
64888;DHT22;51386;53.082;8.816;2023-06-22T00:15:44;23.30;70.60
64888;DHT22;51386;53.082;8.816;2023-06-22T00:18:11;23.30;70.40
64888;DHT22;51386;53.082;8.816;2023-06-22T00:20:41;23.20;70.40
64888;DHT22;51386;53.082;8.816;2023-06-22T00:23:08;23.20;70.70
64888;DHT22;51386;53.082;8.816;2023-06-22T00:25:36;23.10;70.80
64888;DHT22;51386;53.082;8.816;2023-06-22T00:28:04;23.00;71.80
64888;DHT22;51386;53.082;8.816;2023-06-22T00:30:31;22.90;71.70
64888;DHT22;51386;53.082;8.816;2023-06-22T00:32:59;22.90;72.10
64888;DHT22;51386;53.082;8.816;2023-06-22T00:35:27;22.90;72.30
64888;DHT22;51386;53.082;8.816;2023-06-22T00:37:58;22.90;72.40
64888;DHT22;51386;53.082;8.816;2023-06-22T00:40:31;23.00;72.30
64888;DHT22;51386;53.082;8.816;2023-06-22T00:42:59;23.00;71.80
64888;DHT22;51386;53.082;8.816;2023-06-22T00:45:26;23.00;71.60
64888;DHT22;51386;53.082;8.816;2023-06-22T00:47:56;23.00;71.70
64888;DHT22;51386;53.082;8.816;2023-06-22T00:50:26;22.90;72.10
64888;DHT22;51386;53.082;8.816;2023-06-22T00:52:58;22.90;72.40
64888;DHT22;51386;53.082;8.816;2023-06-22T00:55:26;22.90;72.60
64888;DHT22;51386;53.082;8.816;2023-06-22T00:57:54;22.90;72.70
64888;DHT22;51386;53.082;8.816;2023-06-22T01:00:23;22.90;72.60
64888;DHT22;51386;53.082;8.816;2023-06-22T01:02:52;23.00;72.60
64888;DHT22;51386;53.082;8.816;2023-06-22T01:05:21;23.00;72.50
64888;DHT22;51386;53.082;8.816;2023-06-22T01:08:06;23.00;72.60
64888;DHT22;51386;53.082;8.816;2023-06-22T01:10:52;23.00;72.80
64888;DHT22;51386;53.082;8.816;2023-06-22T01:13:28;23.00;72.90
64888;DHT22;51386;53.082;8.816;2023-06-22T01:16:03;23.00;72.90
64888;DHT22;51386;53.082;8.816;2023-06-22T01:18:36;23.00;73.00
64888;DHT22;51386;53.082;8.816;2023-06-22T01:21:12;23.00;73.10
64888;DHT22;51386;53.082;8.816;2023-06-22T01:23:56;23.00;73.10
64888;DHT22;51386;53.082;8.816;2023-06-22T01:26:38;23.00;73.20
64888;DHT22;51386;53.082;8.816;2023-06-22T01:29:11;23.00;73.20
64888;DHT22;51386;53.082;8.816;2023-06-22T01:31:41;23.00;73.00
64888;DHT22;51386;53.082;8.816;2023-06-22T01:34:12;23.00;73.20
64888;DHT22;51386;53.082;8.816;2023-06-22T01:36:40;22.90;73.20
64888;DHT22;51386;53.082;8.816;2023-06-22T01:39:09;22.90;73.20
64888;DHT22;51386;53.082;8.816;2023-06-22T01:41:38;22.90;73.10
64888;DHT22;51386;53.082;8.816;2023-06-22T01:44:07;22.90;73.30
64888;DHT22;51386;53.082;8.816;2023-06-22T01:46:38;22.90;73.20
64888;DHT22;51386;53.082;8.816;2023-06-22T01:49:08;22.80;73.80
64888;DHT22;51386;53.082;8.816;2023-06-22T01:51:35;22.80;73.10
64888;DHT22;51386;53.082;8.816;2023-06-22T01:54:02;22.70;73.20
64888;DHT22;51386;53.082;8.816;2023-06-22T01:56:29;22.60;74.20
64888;DHT22;51386;53.082;8.816;2023-06-22T01:59:17;22.50;74.10
64888;DHT22;51386;53.082;8.816;2023-06-22T02:01:57;22.50;74.70
64888;DHT22;51386;53.082;8.816;2023-06-22T02:04:34;22.50;74.70
64888;DHT22;51386;53.082;8.816;2023-06-22T02:07:09;22.40;74.70
64888;DHT22;51386;53.082;8.816;2023-06-22T02:09:43;22.30;74.80
64888;DHT22;51386;53.082;8.816;2023-06-22T02:12:13;22.30;75.20
64888;DHT22;51386;53.082;8.816;2023-06-22T02:14:48;22.20;75.10
64888;DHT22;51386;53.082;8.816;2023-06-22T02:17:16;22.20;75.20
64888;DHT22;51386;53.082;8.816;2023-06-22T02:19:44;22.10;75.30
64888;DHT22;51386;53.082;8.816;2023-06-22T02:22:11;22.00;75.40
64888;DHT22;51386;53.082;8.816;2023-06-22T02:24:40;22.00;75.60
64888;DHT22;51386;53.082;8.816;2023-06-22T02:27:07;22.00;75.90
64888;DHT22;51386;53.082;8.816;2023-06-22T02:29:34;22.00;76.10
64888;DHT22;51386;53.082;8.816;2023-06-22T02:32:03;22.00;76.10
64888;DHT22;51386;53.082;8.816;2023-06-22T02:34:31;22.10;76.00
64888;DHT22;51386;53.082;8.816;2023-06-22T02:37:00;22.00;75.90
64888;DHT22;51386;53.082;8.816;2023-06-22T02:39:29;22.10;75.80
64888;DHT22;51386;53.082;8.816;2023-06-22T02:41:56;22.10;75.70
64888;DHT22;51386;53.082;8.816;2023-06-22T02:44:23;22.20;75.70
64888;DHT22;51386;53.082;8.816;2023-06-22T02:46:50;22.20;75.40
64888;DHT22;51386;53.082;8.816;2023-06-22T02:49:18;22.20;75.20
64888;DHT22;51386;53.082;8.816;2023-06-22T02:51:46;22.30;75.30
64888;DHT22;51386;53.082;8.816;2023-06-22T02:54:14;22.30;75.00
64888;DHT22;51386;53.082;8.816;2023-06-22T02:56:41;22.30;74.80
64888;DHT22;51386;53.082;8.816;2023-06-22T02:59:10;22.30;74.70
64888;DHT22;51386;53.082;8.816;2023-06-22T03:01:37;22.30;74.90
64888;DHT22;51386;53.082;8.816;2023-06-22T03:04:07;22.40;74.70
64888;DHT22;51386;53.082;8.816;2023-06-22T03:06:36;22.40;74.50
64888;DHT22;51386;53.082;8.816;2023-06-22T03:09:04;22.30;74.40
64888;DHT22;51386;53.082;8.816;2023-06-22T03:11:33;22.30;74.50
64888;DHT22;51386;53.082;8.816;2023-06-22T03:14:01;22.30;74.80
64888;DHT22;51386;53.082;8.816;2023-06-22T03:16:28;22.30;74.60
64888;DHT22;51386;53.082;8.816;2023-06-22T03:18:56;22.30;74.50
64888;DHT22;51386;53.082;8.816;2023-06-22T03:21:23;22.30;74.60
64888;DHT22;51386;53.082;8.816;2023-06-22T03:23:52;22.40;74.60
64888;DHT22;51386;53.082;8.816;2023-06-22T03:26:19;22.40;74.50
64888;DHT22;51386;53.082;8.816;2023-06-22T03:28:46;22.40;74.40
64888;DHT22;51386;53.082;8.816;2023-06-22T03:31:13;22.40;74.40
64888;DHT22;51386;53.082;8.816;2023-06-22T03:33:40;22.40;74.20
64888;DHT22;51386;53.082;8.816;2023-06-22T03:36:08;22.40;74.00
64888;DHT22;51386;53.082;8.816;2023-06-22T03:38:35;22.40;73.80
64888;DHT22;51386;53.082;8.816;2023-06-22T03:41:03;22.30;74.10
64888;DHT22;51386;53.082;8.816;2023-06-22T03:43:30;22.20;74.30
64888;DHT22;51386;53.082;8.816;2023-06-22T03:45:57;22.20;74.60
64888;DHT22;51386;53.082;8.816;2023-06-22T03:48:24;22.10;75.00
64888;DHT22;51386;53.082;8.816;2023-06-22T03:50:51;22.10;75.10
64888;DHT22;51386;53.082;8.816;2023-06-22T03:53:18;22.10;75.30
64888;DHT22;51386;53.082;8.816;2023-06-22T03:55:49;22.10;75.40
64888;DHT22;51386;53.082;8.816;2023-06-22T03:58:19;22.10;75.50
64888;DHT22;51386;53.082;8.816;2023-06-22T04:00:47;22.20;75.40
64888;DHT22;51386;53.082;8.816;2023-06-22T04:03:14;22.20;75.30
64888;DHT22;51386;53.082;8.816;2023-06-22T04:05:42;22.20;75.10
64888;DHT22;51386;53.082;8.816;2023-06-22T04:08:09;22.20;75.30
64888;DHT22;51386;53.082;8.816;2023-06-22T04:10:36;22.20;75.20
64888;DHT22;51386;53.082;8.816;2023-06-22T04:13:03;22.20;75.10
64888;DHT22;51386;53.082;8.816;2023-06-22T04:15:32;22.30;75.20
64888;DHT22;51386;53.082;8.816;2023-06-22T04:17:59;22.30;75.30
64888;DHT22;51386;53.082;8.816;2023-06-22T04:20:26;22.30;75.30
64888;DHT22;51386;53.082;8.816;2023-06-22T04:22:55;22.30;75.20
64888;DHT22;51386;53.082;8.816;2023-06-22T04:25:23;22.30;75.70
64888;DHT22;51386;53.082;8.816;2023-06-22T04:27:50;22.30;75.00
64888;DHT22;51386;53.082;8.816;2023-06-22T04:30:17;22.40;75.20
64888;DHT22;51386;53.082;8.816;2023-06-22T04:32:46;22.30;75.30
64888;DHT22;51386;53.082;8.816;2023-06-22T04:35:22;22.40;75.30
64888;DHT22;51386;53.082;8.816;2023-06-22T04:37:50;22.40;74.90
64888;DHT22;51386;53.082;8.816;2023-06-22T04:40:22;22.40;75.20
64888;DHT22;51386;53.082;8.816;2023-06-22T04:42:49;22.40;75.20
64888;DHT22;51386;53.082;8.816;2023-06-22T04:45:20;22.40;75.20
64888;DHT22;51386;53.082;8.816;2023-06-22T04:47:49;22.40;75.20
64888;DHT22;51386;53.082;8.816;2023-06-22T04:50:16;22.40;75.20
64888;DHT22;51386;53.082;8.816;2023-06-22T04:52:44;22.50;75.20
64888;DHT22;51386;53.082;8.816;2023-06-22T04:55:12;22.50;75.20
64888;DHT22;51386;53.082;8.816;2023-06-22T04:57:41;22.50;75.30
64888;DHT22;51386;53.082;8.816;2023-06-22T05:00:16;22.50;75.20
64888;DHT22;51386;53.082;8.816;2023-06-22T05:02:45;22.60;75.40
64888;DHT22;51386;53.082;8.816;2023-06-22T05:05:14;22.60;75.30
64888;DHT22;51386;53.082;8.816;2023-06-22T05:07:43;22.60;75.20
64888;DHT22;51386;53.082;8.816;2023-06-22T05:10:11;22.70;75.20
64888;DHT22;51386;53.082;8.816;2023-06-22T05:12:39;22.70;75.00
64888;DHT22;51386;53.082;8.816;2023-06-22T05:15:08;22.80;74.90
64888;DHT22;51386;53.082;8.816;2023-06-22T05:17:37;22.80;74.70
64888;DHT22;51386;53.082;8.816;2023-06-22T05:20:10;22.90;74.70
64888;DHT22;51386;53.082;8.816;2023-06-22T05:22:40;22.90;74.40
64888;DHT22;51386;53.082;8.816;2023-06-22T05:25:09;22.90;74.40
64888;DHT22;51386;53.082;8.816;2023-06-22T05:27:37;23.00;74.50
64888;DHT22;51386;53.082;8.816;2023-06-22T05:30:08;23.00;74.30
64888;DHT22;51386;53.082;8.816;2023-06-22T05:32:36;23.10;74.30
64888;DHT22;51386;53.082;8.816;2023-06-22T05:35:04;23.10;73.90
64888;DHT22;51386;53.082;8.816;2023-06-22T05:37:31;23.10;73.70
64888;DHT22;51386;53.082;8.816;2023-06-22T05:40:00;23.20;73.50
64888;DHT22;51386;53.082;8.816;2023-06-22T05:42:27;23.20;73.00
64888;DHT22;51386;53.082;8.816;2023-06-22T05:44:55;23.30;73.70
64888;DHT22;51386;53.082;8.816;2023-06-22T05:47:22;23.30;72.90
64888;DHT22;51386;53.082;8.816;2023-06-22T05:49:49;23.40;72.60
64888;DHT22;51386;53.082;8.816;2023-06-22T05:52:16;23.40;72.10
64888;DHT22;51386;53.082;8.816;2023-06-22T05:54:43;23.40;72.00
64888;DHT22;51386;53.082;8.816;2023-06-22T05:57:12;23.50;72.00
64888;DHT22;51386;53.082;8.816;2023-06-22T05:59:39;23.50;71.50
64888;DHT22;51386;53.082;8.816;2023-06-22T06:02:06;23.60;71.60
64888;DHT22;51386;53.082;8.816;2023-06-22T06:04:33;23.60;71.60
64888;DHT22;51386;53.082;8.816;2023-06-22T06:07:01;23.70;71.70
64888;DHT22;51386;53.082;8.816;2023-06-22T06:09:28;23.70;71.30
64888;DHT22;51386;53.082;8.816;2023-06-22T06:11:55;23.90;71.20
64888;DHT22;51386;53.082;8.816;2023-06-22T06:14:23;23.90;70.80
64888;DHT22;51386;53.082;8.816;2023-06-22T06:16:50;24.00;70.70
64888;DHT22;51386;53.082;8.816;2023-06-22T06:19:17;24.10;70.50
64888;DHT22;51386;53.082;8.816;2023-06-22T06:21:44;24.20;70.20
64888;DHT22;51386;53.082;8.816;2023-06-22T06:24:11;24.20;69.90
64888;DHT22;51386;53.082;8.816;2023-06-22T06:26:39;24.30;69.50
64888;DHT22;51386;53.082;8.816;2023-06-22T06:29:09;24.40;69.30
64888;DHT22;51386;53.082;8.816;2023-06-22T06:31:37;24.40;69.00
64888;DHT22;51386;53.082;8.816;2023-06-22T06:34:04;24.40;68.90
64888;DHT22;51386;53.082;8.816;2023-06-22T06:36:31;24.50;68.90
64888;DHT22;51386;53.082;8.816;2023-06-22T06:38:58;24.60;69.00
64888;DHT22;51386;53.082;8.816;2023-06-22T06:41:25;24.60;68.70
64888;DHT22;51386;53.082;8.816;2023-06-22T06:43:52;24.70;68.50
64888;DHT22;51386;53.082;8.816;2023-06-22T06:46:19;24.70;68.20
64888;DHT22;51386;53.082;8.816;2023-06-22T06:48:48;24.70;68.20
64888;DHT22;51386;53.082;8.816;2023-06-22T06:51:15;24.70;68.20
64888;DHT22;51386;53.082;8.816;2023-06-22T06:53:41;24.70;68.30
64888;DHT22;51386;53.082;8.816;2023-06-22T06:56:08;24.80;68.30
64888;DHT22;51386;53.082;8.816;2023-06-22T06:58:38;24.90;68.40
64888;DHT22;51386;53.082;8.816;2023-06-22T07:01:07;24.90;68.30
64888;DHT22;51386;53.082;8.816;2023-06-22T07:03:34;25.00;68.20
64888;DHT22;51386;53.082;8.816;2023-06-22T07:06:03;25.10;68.20
64888;DHT22;51386;53.082;8.816;2023-06-22T07:08:30;25.20;67.80
64888;DHT22;51386;53.082;8.816;2023-06-22T07:10:57;25.30;67.50
64888;DHT22;51386;53.082;8.816;2023-06-22T07:13:24;25.40;67.20
64888;DHT22;51386;53.082;8.816;2023-06-22T07:15:51;25.50;67.00
64888;DHT22;51386;53.082;8.816;2023-06-22T07:18:18;25.60;66.40
64888;DHT22;51386;53.082;8.816;2023-06-22T07:20:45;25.70;66.10
64888;DHT22;51386;53.082;8.816;2023-06-22T07:23:13;25.80;65.70
64888;DHT22;51386;53.082;8.816;2023-06-22T07:25:40;25.90;65.20
64888;DHT22;51386;53.082;8.816;2023-06-22T07:28:09;26.00;65.10
64888;DHT22;51386;53.082;8.816;2023-06-22T07:30:36;26.10;65.00
64888;DHT22;51386;53.082;8.816;2023-06-22T07:33:03;26.20;64.30
64888;DHT22;51386;53.082;8.816;2023-06-22T07:35:31;26.20;64.10
64888;DHT22;51386;53.082;8.816;2023-06-22T07:37:58;26.30;63.30
64888;DHT22;51386;53.082;8.816;2023-06-22T07:40:31;26.40;63.00
64888;DHT22;51386;53.082;8.816;2023-06-22T07:42:58;26.50;62.90
64888;DHT22;51386;53.082;8.816;2023-06-22T07:45:25;26.60;62.10
64888;DHT22;51386;53.082;8.816;2023-06-22T07:47:52;26.60;62.00
64888;DHT22;51386;53.082;8.816;2023-06-22T07:50:19;26.80;61.40
64888;DHT22;51386;53.082;8.816;2023-06-22T07:52:46;26.80;61.40
64888;DHT22;51386;53.082;8.816;2023-06-22T07:55:14;26.80;60.70
64888;DHT22;51386;53.082;8.816;2023-06-22T07:57:42;26.90;60.00
64888;DHT22;51386;53.082;8.816;2023-06-22T08:00:10;26.90;59.80
64888;DHT22;51386;53.082;8.816;2023-06-22T08:02:43;27.00;59.70
64888;DHT22;51386;53.082;8.816;2023-06-22T08:05:13;27.10;59.40
64888;DHT22;51386;53.082;8.816;2023-06-22T08:08:01;27.20;59.30
64888;DHT22;51386;53.082;8.816;2023-06-22T08:10:28;27.30;59.50
64888;DHT22;51386;53.082;8.816;2023-06-22T08:12:57;27.40;59.50
64888;DHT22;51386;53.082;8.816;2023-06-22T08:15:26;27.40;59.20
64888;DHT22;51386;53.082;8.816;2023-06-22T08:17:54;27.60;59.00
64888;DHT22;51386;53.082;8.816;2023-06-22T08:20:21;27.70;59.10
64888;DHT22;51386;53.082;8.816;2023-06-22T08:22:48;27.80;58.70
64888;DHT22;51386;53.082;8.816;2023-06-22T08:25:15;28.10;58.70
64888;DHT22;51386;53.082;8.816;2023-06-22T08:27:45;28.50;58.40
64888;DHT22;51386;53.082;8.816;2023-06-22T08:30:15;29.00;57.40
64888;DHT22;51386;53.082;8.816;2023-06-22T08:32:44;29.70;55.50
64888;DHT22;51386;53.082;8.816;2023-06-22T08:35:11;30.40;52.80
64888;DHT22;51386;53.082;8.816;2023-06-22T08:37:38;31.10;51.80
64888;DHT22;51386;53.082;8.816;2023-06-22T08:40:07;31.60;49.50
64888;DHT22;51386;53.082;8.816;2023-06-22T08:42:37;32.30;47.40
64888;DHT22;51386;53.082;8.816;2023-06-22T08:45:05;32.90;44.00
64888;DHT22;51386;53.082;8.816;2023-06-22T08:47:34;33.30;41.80
64888;DHT22;51386;53.082;8.816;2023-06-22T08:50:02;33.70;40.40
64888;DHT22;51386;53.082;8.816;2023-06-22T08:52:31;34.10;40.30
64888;DHT22;51386;53.082;8.816;2023-06-22T08:54:58;34.50;40.20
64888;DHT22;51386;53.082;8.816;2023-06-22T08:57:25;34.90;40.40
64888;DHT22;51386;53.082;8.816;2023-06-22T08:59:52;35.30;39.50
64888;DHT22;51386;53.082;8.816;2023-06-22T09:02:19;35.70;38.40
64888;DHT22;51386;53.082;8.816;2023-06-22T09:04:48;36.10;37.70
64888;DHT22;51386;53.082;8.816;2023-06-22T09:07:16;36.50;34.50
64888;DHT22;51386;53.082;8.816;2023-06-22T09:09:49;36.80;34.20
64888;DHT22;51386;53.082;8.816;2023-06-22T09:12:19;37.00;33.80
64888;DHT22;51386;53.082;8.816;2023-06-22T09:14:49;37.20;33.60
64888;DHT22;51386;53.082;8.816;2023-06-22T09:17:16;37.50;32.00
64888;DHT22;51386;53.082;8.816;2023-06-22T09:19:43;37.60;31.60
64888;DHT22;51386;53.082;8.816;2023-06-22T09:22:32;37.80;30.80
64888;DHT22;51386;53.082;8.816;2023-06-22T09:24:59;38.10;30.30
64888;DHT22;51386;53.082;8.816;2023-06-22T09:27:26;38.10;29.80
64888;DHT22;51386;53.082;8.816;2023-06-22T09:29:53;38.10;30.40
64888;DHT22;51386;53.082;8.816;2023-06-22T09:32:20;38.20;30.20
64888;DHT22;51386;53.082;8.816;2023-06-22T09:34:47;38.30;30.20
64888;DHT22;51386;53.082;8.816;2023-06-22T09:37:16;38.30;30.00
64888;DHT22;51386;53.082;8.816;2023-06-22T09:39:45;38.40;29.90
64888;DHT22;51386;53.082;8.816;2023-06-22T09:42:12;38.30;29.60
64888;DHT22;51386;53.082;8.816;2023-06-22T09:44:40;38.30;30.00
64888;DHT22;51386;53.082;8.816;2023-06-22T09:47:07;38.30;30.10
64888;DHT22;51386;53.082;8.816;2023-06-22T09:49:34;38.20;30.00
64888;DHT22;51386;53.082;8.816;2023-06-22T09:52:13;38.20;30.00
64888;DHT22;51386;53.082;8.816;2023-06-22T09:54:41;38.00;30.00
64888;DHT22;51386;53.082;8.816;2023-06-22T09:57:09;37.80;30.20
64888;DHT22;51386;53.082;8.816;2023-06-22T09:59:36;37.40;30.90
64888;DHT22;51386;53.082;8.816;2023-06-22T10:02:05;37.20;31.50
64888;DHT22;51386;53.082;8.816;2023-06-22T10:04:32;37.10;32.10
64888;DHT22;51386;53.082;8.816;2023-06-22T10:07:00;37.10;32.20
64888;DHT22;51386;53.082;8.816;2023-06-22T10:09:27;37.10;32.10
64888;DHT22;51386;53.082;8.816;2023-06-22T10:11:54;37.30;32.30
64888;DHT22;51386;53.082;8.816;2023-06-22T10:14:22;37.50;32.00
64888;DHT22;51386;53.082;8.816;2023-06-22T10:16:52;37.70;31.50
64888;DHT22;51386;53.082;8.816;2023-06-22T10:19:19;37.80;31.30
64888;DHT22;51386;53.082;8.816;2023-06-22T10:21:46;37.80;31.60
64888;DHT22;51386;53.082;8.816;2023-06-22T10:24:13;37.70;31.80
64888;DHT22;51386;53.082;8.816;2023-06-22T10:26:40;37.40;31.20
64888;DHT22;51386;53.082;8.816;2023-06-22T10:29:07;37.20;31.70
64888;DHT22;51386;53.082;8.816;2023-06-22T10:31:44;37.00;32.30
64888;DHT22;51386;53.082;8.816;2023-06-22T10:34:11;37.00;32.40
64888;DHT22;51386;53.082;8.816;2023-06-22T10:36:38;36.90;32.50
64888;DHT22;51386;53.082;8.816;2023-06-22T10:39:05;36.80;32.70
64888;DHT22;51386;53.082;8.816;2023-06-22T10:41:32;36.60;33.00
64888;DHT22;51386;53.082;8.816;2023-06-22T10:43:59;36.40;33.50
64888;DHT22;51386;53.082;8.816;2023-06-22T10:46:26;36.20;33.80
64888;DHT22;51386;53.082;8.816;2023-06-22T10:48:55;36.00;34.10
64888;DHT22;51386;53.082;8.816;2023-06-22T10:51:25;35.70;34.50
64888;DHT22;51386;53.082;8.816;2023-06-22T10:53:52;35.50;35.00
64888;DHT22;51386;53.082;8.816;2023-06-22T10:56:19;35.20;35.40
64888;DHT22;51386;53.082;8.816;2023-06-22T10:58:46;35.00;36.00
64888;DHT22;51386;53.082;8.816;2023-06-22T11:01:13;34.80;36.30
64888;DHT22;51386;53.082;8.816;2023-06-22T11:04:02;34.60;36.80
64888;DHT22;51386;53.082;8.816;2023-06-22T11:06:30;34.40;37.40
64888;DHT22;51386;53.082;8.816;2023-06-22T11:08:57;34.20;37.20
64888;DHT22;51386;53.082;8.816;2023-06-22T11:11:37;34.10;37.40
64888;DHT22;51386;53.082;8.816;2023-06-22T11:14:04;34.10;37.30
64888;DHT22;51386;53.082;8.816;2023-06-22T11:16:32;34.00;37.40
64888;DHT22;51386;53.082;8.816;2023-06-22T11:18:59;33.80;37.70
64888;DHT22;51386;53.082;8.816;2023-06-22T11:21:27;33.80;38.00
64888;DHT22;51386;53.082;8.816;2023-06-22T11:23:54;33.70;38.40
64888;DHT22;51386;53.082;8.816;2023-06-22T11:26:21;33.60;38.50
64888;DHT22;51386;53.082;8.816;2023-06-22T11:28:48;33.50;38.30
64888;DHT22;51386;53.082;8.816;2023-06-22T11:31:15;33.40;38.60
64888;DHT22;51386;53.082;8.816;2023-06-22T11:33:52;33.30;38.50
64888;DHT22;51386;53.082;8.816;2023-06-22T11:36:20;33.20;38.90
64888;DHT22;51386;53.082;8.816;2023-06-22T11:38:48;33.20;39.50
64888;DHT22;51386;53.082;8.816;2023-06-22T11:41:15;33.20;39.80
64888;DHT22;51386;53.082;8.816;2023-06-22T11:43:42;33.10;39.70
64888;DHT22;51386;53.082;8.816;2023-06-22T11:46:10;33.00;39.80
64888;DHT22;51386;53.082;8.816;2023-06-22T11:48:37;33.00;39.70
64888;DHT22;51386;53.082;8.816;2023-06-22T11:51:04;32.90;40.00
64888;DHT22;51386;53.082;8.816;2023-06-22T11:53:33;33.00;40.40
64888;DHT22;51386;53.082;8.816;2023-06-22T11:56:02;32.90;40.30
64888;DHT22;51386;53.082;8.816;2023-06-22T11:58:29;33.00;40.60
64888;DHT22;51386;53.082;8.816;2023-06-22T12:00:56;33.00;40.70
64888;DHT22;51386;53.082;8.816;2023-06-22T12:03:23;32.90;40.00
64888;DHT22;51386;53.082;8.816;2023-06-22T12:05:51;32.90;40.20
64888;DHT22;51386;53.082;8.816;2023-06-22T12:08:21;32.90;40.40
64888;DHT22;51386;53.082;8.816;2023-06-22T12:10:49;32.90;40.60
64888;DHT22;51386;53.082;8.816;2023-06-22T12:13:18;32.90;40.40
64888;DHT22;51386;53.082;8.816;2023-06-22T12:15:45;32.90;40.40
64888;DHT22;51386;53.082;8.816;2023-06-22T12:18:12;32.90;40.30
64888;DHT22;51386;53.082;8.816;2023-06-22T12:20:41;32.90;40.30
64888;DHT22;51386;53.082;8.816;2023-06-22T12:23:08;32.90;40.00
64888;DHT22;51386;53.082;8.816;2023-06-22T12:25:35;32.90;39.80
64888;DHT22;51386;53.082;8.816;2023-06-22T12:28:02;32.90;40.00
64888;DHT22;51386;53.082;8.816;2023-06-22T12:30:32;33.00;40.40
64888;DHT22;51386;53.082;8.816;2023-06-22T12:33:00;32.90;40.50
64888;DHT22;51386;53.082;8.816;2023-06-22T12:35:27;32.90;40.50
64888;DHT22;51386;53.082;8.816;2023-06-22T12:37:54;32.90;40.50
64888;DHT22;51386;53.082;8.816;2023-06-22T12:40:21;32.90;40.40
64888;DHT22;51386;53.082;8.816;2023-06-22T12:42:48;32.80;39.20
64888;DHT22;51386;53.082;8.816;2023-06-22T12:45:16;32.80;39.20
64888;DHT22;51386;53.082;8.816;2023-06-22T12:47:44;32.70;39.70
64888;DHT22;51386;53.082;8.816;2023-06-22T12:50:12;32.70;40.20
64888;DHT22;51386;53.082;8.816;2023-06-22T12:52:39;32.70;40.20
64888;DHT22;51386;53.082;8.816;2023-06-22T12:55:08;32.60;40.30
64888;DHT22;51386;53.082;8.816;2023-06-22T12:57:35;32.50;40.70
64888;DHT22;51386;53.082;8.816;2023-06-22T13:00:03;32.40;40.90
64888;DHT22;51386;53.082;8.816;2023-06-22T13:02:32;32.30;41.20
64888;DHT22;51386;53.082;8.816;2023-06-22T13:05:01;32.20;41.50
64888;DHT22;51386;53.082;8.816;2023-06-22T13:07:28;32.20;41.70
64888;DHT22;51386;53.082;8.816;2023-06-22T13:09:55;32.10;41.40
64888;DHT22;51386;53.082;8.816;2023-06-22T13:12:23;32.00;41.50
64888;DHT22;51386;53.082;8.816;2023-06-22T13:14:50;32.00;41.60
64888;DHT22;51386;53.082;8.816;2023-06-22T13:17:17;32.00;41.90
64888;DHT22;51386;53.082;8.816;2023-06-22T13:19:44;32.00;41.90
64888;DHT22;51386;53.082;8.816;2023-06-22T13:22:29;31.90;42.10
64888;DHT22;51386;53.082;8.816;2023-06-22T13:24:59;31.90;42.60
64888;DHT22;51386;53.082;8.816;2023-06-22T13:27:27;31.90;42.70
64888;DHT22;51386;53.082;8.816;2023-06-22T13:29:58;31.90;42.80
64888;DHT22;51386;53.082;8.816;2023-06-22T13:32:25;31.90;42.80
64888;DHT22;51386;53.082;8.816;2023-06-22T13:34:53;31.80;42.30
64888;DHT22;51386;53.082;8.816;2023-06-22T13:37:20;31.90;42.50
64888;DHT22;51386;53.082;8.816;2023-06-22T13:39:48;31.80;42.60
64888;DHT22;51386;53.082;8.816;2023-06-22T13:42:15;31.70;42.50
64888;DHT22;51386;53.082;8.816;2023-06-22T13:44:42;31.70;42.40
64888;DHT22;51386;53.082;8.816;2023-06-22T13:47:10;31.60;42.40
64888;DHT22;51386;53.082;8.816;2023-06-22T13:49:37;31.60;41.70
64888;DHT22;51386;53.082;8.816;2023-06-22T13:52:04;31.50;41.60
64888;DHT22;51386;53.082;8.816;2023-06-22T13:54:33;31.40;41.50
64888;DHT22;51386;53.082;8.816;2023-06-22T13:57:03;31.30;41.90
64888;DHT22;51386;53.082;8.816;2023-06-22T13:59:31;31.30;42.30
64888;DHT22;51386;53.082;8.816;2023-06-22T14:01:59;31.30;42.60
64888;DHT22;51386;53.082;8.816;2023-06-22T14:04:31;31.20;42.40
64888;DHT22;51386;53.082;8.816;2023-06-22T14:06:58;31.20;42.40
64888;DHT22;51386;53.082;8.816;2023-06-22T14:09:25;31.10;42.80
64888;DHT22;51386;53.082;8.816;2023-06-22T14:11:54;31.10;42.90
64888;DHT22;51386;53.082;8.816;2023-06-22T14:14:22;31.00;42.60
64888;DHT22;51386;53.082;8.816;2023-06-22T14:16:49;31.00;42.90
64888;DHT22;51386;53.082;8.816;2023-06-22T14:19:17;31.00;43.20
64888;DHT22;51386;53.082;8.816;2023-06-22T14:21:45;30.90;44.20
64888;DHT22;51386;53.082;8.816;2023-06-22T14:24:12;30.90;43.90
64888;DHT22;51386;53.082;8.816;2023-06-22T14:26:39;30.90;44.30
64888;DHT22;51386;53.082;8.816;2023-06-22T14:29:06;30.80;44.70
64888;DHT22;51386;53.082;8.816;2023-06-22T14:31:34;30.80;45.00
64888;DHT22;51386;53.082;8.816;2023-06-22T14:34:02;30.70;45.30
64888;DHT22;51386;53.082;8.816;2023-06-22T14:36:30;30.60;45.50
64888;DHT22;51386;53.082;8.816;2023-06-22T14:38:57;30.60;45.80
64888;DHT22;51386;53.082;8.816;2023-06-22T14:41:24;30.50;46.20
64888;DHT22;51386;53.082;8.816;2023-06-22T14:43:51;30.50;47.10
64888;DHT22;51386;53.082;8.816;2023-06-22T14:46:19;30.40;46.80
64888;DHT22;51386;53.082;8.816;2023-06-22T14:48:48;30.40;47.20
64888;DHT22;51386;53.082;8.816;2023-06-22T14:51:15;30.30;47.80
64888;DHT22;51386;53.082;8.816;2023-06-22T14:53:44;30.20;48.10
64888;DHT22;51386;53.082;8.816;2023-06-22T14:56:12;30.20;48.20
64888;DHT22;51386;53.082;8.816;2023-06-22T14:58:42;30.20;48.60
64888;DHT22;51386;53.082;8.816;2023-06-22T15:01:14;30.10;49.10
64888;DHT22;51386;53.082;8.816;2023-06-22T15:03:43;30.10;49.60
64888;DHT22;51386;53.082;8.816;2023-06-22T15:06:12;30.00;49.90
64888;DHT22;51386;53.082;8.816;2023-06-22T15:08:39;29.90;50.00
64888;DHT22;51386;53.082;8.816;2023-06-22T15:11:07;29.90;50.70
64888;DHT22;51386;53.082;8.816;2023-06-22T15:13:34;29.80;51.70
64888;DHT22;51386;53.082;8.816;2023-06-22T15:16:05;29.80;52.20
64888;DHT22;51386;53.082;8.816;2023-06-22T15:18:32;29.70;53.40
64888;DHT22;51386;53.082;8.816;2023-06-22T15:21:02;29.70;54.10
64888;DHT22;51386;53.082;8.816;2023-06-22T15:23:32;29.60;54.40
64888;DHT22;51386;53.082;8.816;2023-06-22T15:26:02;29.60;55.20
64888;DHT22;51386;53.082;8.816;2023-06-22T15:28:33;29.50;55.70
64888;DHT22;51386;53.082;8.816;2023-06-22T15:31:01;29.50;55.80
64888;DHT22;51386;53.082;8.816;2023-06-22T15:33:28;29.40;56.30
64888;DHT22;51386;53.082;8.816;2023-06-22T15:35:58;29.40;56.60
64888;DHT22;51386;53.082;8.816;2023-06-22T15:38:29;29.30;57.30